Time;durP1;ratioP1;P1;durP2;ratioP2;P2;SDS_P1;SDS_P2;PMS_P1;PMS_P2;Temp;Humidity;BMP_temperature;BMP_pressure;BME280_temperature;BME280_humidity;BME280_pressure;Samples;Min_cycle;Max_cycle;Signal;HPM_P1;HPM_P2
2020/12/05 00:00:08;;;;;;;24.92;16.55;;;;;;;6.98;61.25;99313.17;2466656;78;26350;-81
2020/12/05 00:03:42;;;;;;;22.75;16.45;;;;;;;7.01;61.25;99335.27;2459537;78;25952;-80
2020/12/05 00:07:12;;;;;;;25.60;16.48;;;;;;;7.01;61.23;99315.83;2451013;78;25685;-80
2020/12/05 00:10:33;;;;;;;25.70;17.15;;;;;;;7.04;61.21;99329.28;2460043;78;25373;-80
2020/12/05 00:13:55;;;;;;;24.32;17.45;;;;;;;7.07;61.17;99318.98;2460957;79;25852;-80
2020/12/05 00:17:21;;;;;;;19.62;15.65;;;;;;;7.08;61.17;99311.23;2462604;78;25614;-80
2020/12/05 00:20:40;;;;;;;26.15;16.27;;;;;;;7.09;61.15;99318.18;2460958;79;25651;-80
2020/12/05 00:24:02;;;;;;;23.57;15.70;;;;;;;7.10;61.13;99310.85;2457014;79;26099;-80
2020/12/05 00:27:24;;;;;;;25.52;16.10;;;;;;;7.12;61.11;99329.04;2461004;79;25701;-80
2020/12/05 00:30:45;;;;;;;25.52;16.70;;;;;;;7.14;61.10;99316.09;2461419;78;25706;-80
2020/12/05 00:34:07;;;;;;;21.30;14.75;;;;;;;7.14;61.07;99328.63;2461511;79;25878;-80
2020/12/05 00:37:30;;;;;;;22.58;15.85;;;;;;;7.16;61.06;99318.31;2461923;79;25370;-80
2020/12/05 00:40:52;;;;;;;23.95;15.60;;;;;;;7.17;61.07;99336.47;2457792;79;25649;-80
2020/12/05 00:44:13;;;;;;;24.47;15.78;;;;;;;7.18;61.04;99340.80;2458726;79;25847;-80
2020/12/05 00:47:35;;;;;;;19.23;15.10;;;;;;;7.19;61.04;99322.23;2460624;79;25615;-81
2020/12/05 00:51:03;;;;;;;24.63;15.48;;;;;;;7.19;61.02;99336.48;2481699;77;25776;-80
2020/12/05 00:54:25;;;;;;;22.35;14.75;;;;;;;7.20;61.02;99333.08;2460281;79;25710;-80
2020/12/05 00:57:47;;;;;;;22.85;15.20;;;;;;;7.19;61.02;99336.09;2455615;79;25435;-79
2020/12/05 01:01:11;;;;;;;19.85;14.18;;;;;;;7.20;61.01;99330.05;2460178;78;25748;-79
2020/12/05 01:04:32;;;;;;;20.30;15.68;;;;;;;7.20;61.01;99343.02;2460061;79;25807;-80
2020/12/05 01:07:54;;;;;;;16.73;13.65;;;;;;;7.21;61.01;99352.96;2462716;79;25726;-80
2020/12/05 01:11:20;;;;;;;20.17;15.20;;;;;;;7.21;61.01;99340.86;2453464;78;25770;-80
2020/12/05 01:14:41;;;;;;;24.23;14.73;;;;;;;7.21;61.02;99335.69;2455772;78;25710;-79
2020/12/05 01:18:03;;;;;;;18.77;14.87;;;;;;;7.22;61.03;99337.84;2458880;78;25622;-80
2020/12/05 01:21:25;;;;;;;20.65;14.80;;;;;;;7.21;61.03;99336.98;2464118;78;25332;-80
2020/12/05 01:24:47;;;;;;;22.05;14.98;;;;;;;7.22;61.02;99337.84;2458476;79;25960;-79
2020/12/05 01:28:08;;;;;;;22.17;13.90;;;;;;;7.22;61.03;99337.45;2458933;78;26173;-80
2020/12/05 01:31:29;;;;;;;18.45;13.72;;;;;;;7.23;61.01;99344.80;2482300;78;25815;-80
2020/12/05 01:38:28;;;;;;;19.07;14.13;;;;;;;7.24;61.01;99367.28;2419788;79;25686;-79
2020/12/05 01:41:52;;;;;;;19.37;13.38;;;;;;;7.24;61.02;99365.56;2451265;79;25720;-79
2020/12/05 01:45:13;;;;;;;21.15;13.93;;;;;;;7.24;61.01;99373.34;2450179;79;25937;-79
2020/12/05 01:48:35;;;;;;;19.92;15.20;;;;;;;7.25;61.01;99368.59;2446349;79;25816;-79
2020/12/05 01:51:56;;;;;;;19.15;14.50;;;;;;;7.25;61.02;99366.00;2446935;79;25690;-79
2020/12/05 01:55:19;;;;;;;17.27;13.00;;;;;;;7.26;61.00;99351.35;2446553;79;25390;-79
2020/12/05 01:58:40;;;;;;;16.55;13.25;;;;;;;7.27;61.01;99363.45;2449300;79;25679;-79
2020/12/05 02:02:06;;;;;;;19.90;14.28;;;;;;;7.27;61.00;99356.55;2486240;77;25867;-81
2020/12/05 02:05:57;;;;;;;19.90;14.30;;;;;;;7.27;60.99;99351.37;2477770;78;25687;-79
2020/12/05 02:09:36;;;;;;;16.48;13.25;;;;;;;7.27;60.99;99360.44;2483246;78;25784;-79
2020/12/05 02:13:15;;;;;;;19.87;14.28;;;;;;;7.27;61.01;99350.07;2485973;78;31764;-79
2020/12/05 02:16:39;;;;;;;;;;;;;;;7.26;61.02;99356.53;2466120;78;26434;-79
2020/12/05 02:20:02;;;;;;;15.45;12.30;;;;;;;7.26;61.09;99343.58;2459677;79;25794;-79
2020/12/05 02:23:25;;;;;;;14.78;12.10;;;;;;;7.25;61.05;99338.78;2459987;78;25638;-79
2020/12/05 02:26:47;;;;;;;18.50;13.40;;;;;;;7.25;61.07;99338.78;2459105;78;25690;-79
2020/12/05 02:30:16;;;;;;;15.85;13.48;;;;;;;7.26;61.07;99341.84;2462380;78;25919;-79
2020/12/05 02:33:38;;;;;;;14.30;12.80;;;;;;;7.26;61.07;99340.55;2458161;78;30714;-79
2020/12/05 02:37:08;;;;;;;20.35;12.73;;;;;;;7.27;61.09;99345.31;2462352;79;26053;-79
2020/12/05 02:40:30;;;;;;;15.55;12.78;;;;;;;7.28;61.08;99343.16;2463147;78;25608;-80
2020/12/05 02:43:52;;;;;;;18.42;12.63;;;;;;;7.28;61.11;99346.63;2461502;79;26199;-79
2020/12/05 02:47:13;;;;;;;18.00;12.73;;;;;;;7.28;61.13;99346.63;2462343;79;25361;-79
2020/12/05 02:50:36;;;;;;;13.72;12.13;;;;;;;7.29;61.12;99341.05;2462399;79;25616;-79
2020/12/05 02:53:58;;;;;;;16.55;12.15;;;;;;;7.29;61.13;99348.39;2459256;79;25926;-80
2020/12/05 02:57:20;;;;;;;13.25;11.68;;;;;;;7.30;61.16;99343.66;2461497;79;25356;-79
2020/12/05 03:00:41;;;;;;;16.60;12.80;;;;;;;7.30;61.16;99354.45;2463331;79;25602;-79
2020/12/05 03:04:03;;;;;;;19.10;12.28;;;;;;;7.31;61.17;99357.48;2461355;78;25657;-79
2020/12/05 03:07:25;;;;;;;18.40;11.65;;;;;;;7.31;61.19;99367.43;2459779;79;25669;-79
2020/12/05 03:10:46;;;;;;;15.68;12.07;;;;;;;7.32;61.19;99363.11;2459223;78;25826;-78
2020/12/05 03:14:08;;;;;;;15.75;12.45;;;;;;;7.32;61.19;99361.42;2460445;78;25713;-78
2020/12/05 03:17:29;;;;;;;16.48;10.98;;;;;;;7.33;61.20;99362.30;2461143;79;26077;-79
2020/12/05 03:20:51;;;;;;;14.05;12.03;;;;;;;7.33;61.21;99358.41;2460361;78;26005;-80
2020/12/05 03:24:12;;;;;;;17.67;12.33;;;;;;;7.34;61.24;99361.02;2458932;79;25709;-79
2020/12/05 03:27:33;;;;;;;15.53;11.85;;;;;;;7.35;61.24;99365.77;2455233;78;26082;-79
2020/12/05 03:30:55;;;;;;;16.23;11.63;;;;;;;7.36;61.26;99369.23;2454421;79;25430;-80
2020/12/05 03:34:16;;;;;;;16.05;11.85;;;;;;;7.36;61.26;99373.12;2458964;78;25661;-80
2020/12/05 03:37:38;;;;;;;13.72;12.07;;;;;;;7.37;61.28;99368.41;2459381;79;25869;-80
2020/12/05 03:40:59;;;;;;;18.55;11.65;;;;;;;7.37;61.28;99358.04;2457506;79;25686;-80
2020/12/05 03:44:21;;;;;;;13.55;11.53;;;;;;;7.38;61.29;99370.15;2462502;78;25634;-80
2020/12/05 03:47:42;;;;;;;15.93;11.83;;;;;;;7.38;61.29;99365.84;2461441;79;25714;-80
2020/12/05 03:51:03;;;;;;;15.08;12.03;;;;;;;7.38;61.30;99361.95;2464489;79;25591;-79
2020/12/05 03:54:25;;;;;;;14.78;11.22;;;;;;;7.40;61.30;99361.99;2453515;79;25746;-80
2020/12/05 03:57:46;;;;;;;17.52;11.12;;;;;;;7.40;61.31;99352.92;2457809;78;25833;-80
2020/12/05 04:01:08;;;;;;;14.35;12.05;;;;;;;7.40;61.32;99352.49;2462264;78;25694;-80
2020/12/05 04:04:30;;;;;;;19.15;14.10;;;;;;;7.40;61.34;99348.60;2457069;79;25375;-79
2020/12/05 04:07:52;;;;;;;13.18;11.12;;;;;;;7.42;61.35;99356.40;2459040;78;25752;-79
2020/12/05 04:11:13;;;;;;;13.08;11.68;;;;;;;7.42;61.36;99366.34;2459416;79;25811;-80
2020/12/05 04:14:35;;;;;;;13.60;12.20;;;;;;;7.42;61.35;99372.83;2461757;78;25770;-80
2020/12/05 04:17:56;;;;;;;13.00;11.55;;;;;;;7.43;61.37;99378.48;2463603;78;25613;-80
2020/12/05 04:21:25;;;;;;;15.93;12.23;;;;;;;7.43;61.39;99381.51;2459093;79;25804;-80
2020/12/05 04:24:46;;;;;;;12.98;11.65;;;;;;;7.43;61.37;99394.05;2466732;78;30598;-80
2020/12/05 04:28:08;;;;;;;14.38;11.97;;;;;;;7.44;61.39;99383.24;2462721;78;25898;-80
2020/12/05 04:31:29;;;;;;;12.78;11.18;;;;;;;7.44;61.39;99394.91;2463813;78;25729;-80
2020/12/05 04:34:51;;;;;;;12.50;10.85;;;;;;;7.45;61.41;99400.55;2463235;78;25615;-79
2020/12/05 04:38:12;;;;;;;12.40;11.20;;;;;;;7.44;61.40;99397.51;2461630;78;25790;-79
2020/12/05 04:41:33;;;;;;;12.03;10.78;;;;;;;7.45;61.41;99398.81;2462357;78;25682;-80
2020/12/05 04:44:55;;;;;;;13.32;11.38;;;;;;;7.46;61.41;99401.89;2464835;79;25534;-80
2020/12/05 04:48:17;;;;;;;13.43;11.57;;;;;;;7.47;61.43;99411.84;2461620;79;25540;-79
2020/12/05 04:51:39;;;;;;;15.38;12.05;;;;;;;7.46;61.42;99412.27;2459706;78;25607;-80
2020/12/05 04:55:01;;;;;;;13.83;12.13;;;;;;;7.47;61.45;99424.80;2472483;78;25350;-80
2020/12/05 04:58:24;;;;;;;13.28;11.83;;;;;;;7.46;61.45;99416.55;2456195;78;25780;-79
2020/12/05 05:01:50;;;;;;;12.93;11.10;;;;;;;7.47;61.49;99417.02;2452807;79;25699;-79
2020/12/05 05:05:13;;;;;;;15.10;11.57;;;;;;;7.46;61.48;99417.84;2461596;79;25848;-79
2020/12/05 05:08:35;;;;;;;16.93;12.68;;;;;;;7.45;61.49;99418.27;2460572;79;25642;-80
2020/12/05 05:11:57;;;;;;;16.62;12.20;;;;;;;7.46;61.51;99427.82;2453500;79;25590;-81
2020/12/05 05:19:27;;;;;;;15.98;12.13;;;;;;;7.45;61.54;99409.19;2410296;80;25757;-80
2020/12/05 05:23:21;;;;;;;15.93;14.30;;;;;;;7.50;61.63;99406.28;2495385;77;32832;-80
2020/12/05 05:27:05;;;;;;;15.13;12.68;;;;;;;7.58;61.51;99407.30;2433551;81;25445;-80
2020/12/05 05:30:27;;;;;;;13.53;11.53;;;;;;;7.60;61.47;99406.48;2413969;81;25698;-80
2020/12/05 05:33:52;;;;;;;14.90;12.33;;;;;;;7.57;61.49;99402.09;2391824;82;25705;-79
2020/12/05 05:37:17;;;;;;;12.88;11.55;;;;;;;7.54;61.53;99418.46;2391954;82;25697;-80
2020/12/05 05:40:39;;;;;;;16.62;11.38;;;;;;;7.52;61.52;99414.95;2391603;82;25379;-80
2020/12/05 05:44:06;;;;;;;17.67;11.65;;;;;;;7.52;61.53;99420.56;2391727;82;25411;-80
2020/12/05 05:47:45;;;;;;;15.83;14.23;;;;;;;7.56;61.60;99421.11;2592243;74;38191;-80
2020/12/05 05:51:06;;;;;;;16.48;13.40;;;;;;;7.65;61.49;99418.67;2506933;78;25888;-81
2020/12/05 05:54:30;;;;;;;17.55;12.55;;;;;;;7.66;61.46;99433.41;2509676;78;26241;-80
2020/12/05 05:57:58;;;;;;;15.83;12.37;;;;;;;7.65;61.48;99436.83;2508075;78;25624;-81
2020/12/05 06:01:22;;;;;;;13.53;12.05;;;;;;;7.64;61.49;99440.70;2513339;78;25611;-80
2020/12/05 06:04:47;;;;;;;14.68;10.95;;;;;;;7.64;61.50;99442.00;2479817;78;25574;-81
2020/12/05 06:08:20;;;;;;;16.62;12.20;;;;;;;7.62;61.52;99441.95;2509099;78;25663;-79
2020/12/05 06:11:58;;;;;;;13.95;12.45;;;;;;;7.62;61.53;99441.08;2503812;78;25787;-80
2020/12/05 06:15:20;;;;;;;13.83;11.95;;;;;;;7.60;61.54;99447.55;2508232;78;25675;-80
2020/12/05 06:18:46;;;;;;;20.23;12.43;;;;;;;7.61;61.56;99447.99;2508047;78;25717;-79
2020/12/05 06:22:51;;;;;;;13.70;12.05;;;;;;;7.63;61.56;99448.01;2512969;78;25814;-78
2020/12/05 06:26:18;;;;;;;15.43;12.20;;;;;;;7.62;61.57;99448.44;2504112;78;25700;-82
2020/12/05 06:29:50;;;;;;;13.93;12.05;;;;;;;7.62;61.58;99439.36;2509035;78;25663;-79
2020/12/05 06:33:37;;;;;;;13.48;12.00;;;;;;;7.62;61.58;99451.45;2499964;78;25481;-79
2020/12/05 06:36:59;;;;;;;14.58;12.07;;;;;;;7.63;61.57;99457.99;2509374;78;25702;-81
2020/12/05 06:40:24;;;;;;;15.00;11.28;;;;;;;7.63;61.59;99466.17;2504455;78;25567;-79
2020/12/05 06:44:16;;;;;;;16.15;11.95;;;;;;;7.64;61.60;99453.67;2511777;78;25681;-80
2020/12/05 06:47:49;;;;;;;14.00;12.40;;;;;;;7.69;61.63;99472.36;2590235;76;25582;-79
2020/12/05 06:56:23;;;;;;;14.28;12.18;;;;;;;7.66;61.56;99461.95;2515686;77;25404;-80
2020/12/05 07:00:26;;;;;;;14.75;13.25;;;;;;;7.69;61.56;99480.56;2339789;82;26187;-81
2020/12/05 07:14:27;;;;;;;17.50;15.58;;;;;;;7.85;61.55;99486.95;2476553;78;32319;-79
2020/12/05 07:17:58;;;;;;;16.70;13.55;;;;;;;7.98;61.43;99474.67;2459305;79;25637;-79
2020/12/05 07:21:22;;;;;;;17.27;12.70;;;;;;;8.07;61.31;99472.27;2462047;79;26538;-81
2020/12/05 07:25:01;;;;;;;15.28;12.88;;;;;;;8.16;61.23;99481.50;2458187;78;26136;-79
2020/12/05 07:28:22;;;;;;;11.35;8.43;;;;;;;8.28;61.13;99488.23;2460399;80;25617;-80
2020/12/05 07:31:44;;;;;;;12.30;11.05;;;;;;;8.84;65.90;99498.30;2430419;80;25729;-80
2020/12/05 07:35:09;;;;;;;13.20;11.90;;;;;;;9.26;64.26;99492.91;2487791;78;25208;-80
2020/12/05 07:38:34;;;;;;;16.07;12.05;;;;;;;9.49;64.24;99502.34;2451272;79;25704;-81
2020/12/05 07:41:55;;;;;;;15.80;12.68;;;;;;;9.61;63.89;99508.13;2480759;79;25644;-80
2020/12/05 07:45:33;;;;;;;14.65;12.47;;;;;;;9.74;63.46;99519.14;2485158;79;25636;-80
2020/12/05 07:49:00;;;;;;;20.82;12.98;;;;;;;9.82;62.98;99531.84;2475991;79;25691;-80
2020/12/05 07:52:25;;;;;;;9.93;9.00;;;;;;;9.86;62.65;99518.44;2461646;79;25618;-77
2020/12/05 07:55:46;;;;;;;9.95;8.95;;;;;;;10.29;68.56;99512.05;2455507;79;25595;-77
2020/12/05 07:59:21;;;;;;;11.57;10.48;;;;;;;11.09;68.48;99518.84;2459491;79;25645;-80
2020/12/05 08:03:18;;;;;;;19.87;10.38;;;;;;;11.71;67.58;99529.26;2424363;80;26086;-77
2020/12/05 08:07:37;;;;;;;11.07;10.00;;;;;;;12.50;66.38;99537.85;2438101;79;27888;-80
2020/12/05 08:11:01;;;;;;;12.93;10.70;;;;;;;12.89;65.96;99554.48;2404271;80;25820;-79
2020/12/05 08:14:23;;;;;;;15.20;12.10;;;;;;;13.06;64.92;99553.19;2394774;80;25641;-81
2020/12/05 08:18:25;;;;;;;15.03;12.18;;;;;;;13.05;64.11;99553.17;2416766;80;25619;-81
2020/12/05 08:22:00;;;;;;;16.40;13.45;;;;;;;13.00;63.62;99555.80;2406727;79;25819;-80
2020/12/05 08:25:31;;;;;;;17.67;12.93;;;;;;;12.94;63.12;99559.72;2402388;80;25769;-81
2020/12/05 08:28:54;;;;;;;14.35;12.73;;;;;;;12.97;62.58;99558.41;2407419;80;26255;-81
2020/12/05 08:32:37;;;;;;;16.20;13.30;;;;;;;13.18;61.93;99550.55;2385314;80;25796;-79
2020/12/05 08:36:00;;;;;;;17.70;13.40;;;;;;;13.44;61.30;99557.12;2409674;80;26001;-81
2020/12/05 08:39:32;;;;;;;20.50;14.13;;;;;;;13.78;60.33;99557.50;2425170;80;25743;-79
2020/12/05 08:42:54;;;;;;;15.53;13.22;;;;;;;13.88;59.50;99572.31;2457564;79;25711;-80
2020/12/05 08:46:22;;;;;;;17.35;13.18;;;;;;;13.96;58.87;99567.05;2412061;81;25623;-81
2020/12/05 08:49:55;;;;;;;17.00;13.70;;;;;;;13.90;58.34;99560.96;2396510;81;26044;-80
2020/12/05 08:53:25;;;;;;;17.67;13.30;;;;;;;13.84;57.87;99551.80;2320540;83;25742;-78
2020/12/05 08:56:51;;;;;;;14.55;12.95;;;;;;;13.86;57.47;99550.03;2337331;84;25803;-80
2020/12/05 09:00:12;;;;;;;15.65;13.95;;;;;;;13.88;57.05;99544.80;2333405;84;25877;-80
2020/12/05 09:03:37;;;;;;;14.47;12.53;;;;;;;13.92;56.68;99567.05;2344179;82;25787;-79
2020/12/05 09:07:18;;;;;;;14.98;13.38;;;;;;;13.94;56.19;99548.72;2346515;84;25720;-80
2020/12/05 09:10:52;;;;;;;14.95;12.55;;;;;;;13.92;56.14;99560.50;2301865;83;25808;-81
2020/12/05 09:14:19;;;;;;;14.78;13.18;;;;;;;13.89;55.75;99563.56;2327521;83;25729;-79
2020/12/05 09:17:53;;;;;;;14.85;13.35;;;;;;;13.85;55.44;99563.15;2328633;84;25755;-79
2020/12/05 09:21:22;;;;;;;15.00;13.13;;;;;;;13.81;55.20;99570.59;2293250;83;26055;-80
2020/12/05 09:25:07;;;;;;;16.07;13.05;;;;;;;13.76;55.05;99570.58;2314025;84;26164;-79
2020/12/05 09:29:00;;;;;;;13.68;12.28;;;;;;;13.70;54.72;99571.90;2324875;84;26217;-79
2020/12/05 09:32:45;;;;;;;16.23;13.15;;;;;;;13.68;54.40;99562.75;2285979;84;26101;-79
2020/12/05 09:36:39;;;;;;;15.60;12.23;;;;;;;13.79;54.19;99590.67;2565635;75;30875;-80
2020/12/05 09:40:04;;;;;;;13.68;12.28;;;;;;;13.78;54.18;99568.84;2481237;78;25704;-80
2020/12/05 09:43:26;;;;;;;14.73;12.33;;;;;;;13.81;53.85;99592.86;2453537;78;25710;-81
2020/12/05 09:46:56;;;;;;;16.70;12.73;;;;;;;13.84;53.75;99571.45;2485320;77;26243;-80
2020/12/05 09:50:18;;;;;;;13.80;12.37;;;;;;;13.88;53.47;99565.77;2491879;77;26380;-79
2020/12/05 09:53:51;;;;;;;15.40;12.45;;;;;;;13.92;53.33;99572.29;2506451;77;25819;-79
2020/12/05 09:57:16;;;;;;;13.00;11.65;;;;;;;13.96;53.04;99563.98;2499122;77;26201;-79
2020/12/05 10:00:38;;;;;;;14.35;12.78;;;;;;;14.04;52.93;99556.98;2477637;78;25759;-79
2020/12/05 10:04:00;;;;;;;13.20;11.53;;;;;;;14.25;52.66;99572.19;2479594;77;26254;-79
2020/12/05 10:07:22;;;;;;;13.43;10.82;;;;;;;14.42;52.44;99567.73;2505299;77;25746;-80
2020/12/05 10:10:44;;;;;;;13.40;11.55;;;;;;;14.73;52.23;99579.39;2513228;77;25868;-79
2020/12/05 10:14:22;;;;;;;12.07;10.72;;;;;;;15.32;51.76;99571.09;2499778;77;25703;-81
2020/12/05 10:17:45;;;;;;;14.85;11.70;;;;;;;16.04;51.06;99566.44;2492053;77;25654;-80
2020/12/05 10:21:23;;;;;;;12.25;11.05;;;;;;;16.83;50.04;99583.85;2499549;77;25819;-80
2020/12/05 10:24:46;;;;;;;13.70;10.87;;;;;;;17.50;49.27;99590.67;2431366;80;25985;-81
2020/12/05 10:28:07;;;;;;;14.28;11.25;;;;;;;17.94;48.12;99596.94;2484741;78;25819;-80
2020/12/05 10:31:29;;;;;;;11.40;10.15;;;;;;;18.36;47.43;99583.36;2491532;79;25627;-81
2020/12/05 10:34:56;;;;;;;12.80;11.45;;;;;;;18.71;46.93;99589.64;2487607;79;25783;-81
2020/12/05 10:38:20;;;;;;;11.48;10.20;;;;;;;18.91;46.03;99596.28;2455441;78;25636;-80
2020/12/05 10:41:50;;;;;;;12.23;11.10;;;;;;;19.06;45.69;99586.66;2466713;78;25644;-80
2020/12/05 10:45:15;;;;;;;;;;;;;;;19.31;45.30;99595.75;2322512;83;25925;-79
2020/12/05 10:48:39;;;;;;;11.08;9.95;;;;;;;19.50;44.19;99616.42;2315179;84;25768;-81
2020/12/05 10:52:07;;;;;;;11.25;10.03;;;;;;;19.52;44.32;99611.52;2240604;86;25962;-80
2020/12/05 10:56:02;;;;;;;12.40;11.27;;;;;;;19.51;43.56;99614.21;2520646;75;32230;-80
2020/12/05 10:59:27;;;;;;;11.05;9.35;;;;;;;19.69;43.44;99603.19;2535970;76;25504;-80
2020/12/05 11:02:49;;;;;;;10.93;9.80;;;;;;;19.78;42.83;99597.66;2552036;76;25643;-80
2020/12/05 11:06:25;;;;;;;10.32;9.25;;;;;;;19.86;42.76;99605.38;2455454;80;25763;-81
2020/12/05 11:09:53;;;;;;;11.48;9.70;;;;;;;20.05;42.67;99605.30;2426958;79;25721;-81
2020/12/05 11:13:20;;;;;;;10.03;9.15;;;;;;;20.18;42.36;99614.20;2430863;80;25650;-78
2020/12/05 11:16:50;;;;;;;10.25;9.38;;;;;;;20.31;42.23;99603.69;2429249;78;25856;-80
2020/12/05 11:20:12;;;;;;;11.22;9.73;;;;;;;20.49;42.02;99615.55;2470837;78;25686;-81
2020/12/05 11:23:34;;;;;;;10.93;9.03;;;;;;;20.73;41.76;99607.36;2368744;81;26209;-81
2020/12/05 11:27:10;;;;;;;10.00;8.95;;;;;;;20.97;41.29;99620.30;2483198;78;25940;-80
2020/12/05 11:30:31;;;;;;;10.93;9.13;;;;;;;21.19;41.31;99615.17;2491325;78;26157;-80
2020/12/05 11:33:53;;;;;;;9.20;8.30;;;;;;;21.52;40.66;99626.50;2402808;80;26161;-81
2020/12/05 11:38:03;;;;;;;12.23;9.03;;;;;;;21.80;40.64;99621.14;2371907;81;25891;-80
2020/12/05 11:52:43;;;;;;;9.28;8.38;;;;;;;22.85;38.74;99644.79;2558266;75;26188;-80
2020/12/05 11:56:08;;;;;;;9.83;8.78;;;;;;;22.93;39.12;99636.55;2467429;78;26778;-80
2020/12/05 11:59:29;;;;;;;10.08;9.10;;;;;;;;;;2449815;79;25911;-80
2020/12/05 12:02:52;;;;;;;9.58;8.50;;;;;;;23.19;38.33;99630.20;2452348;78;25890;-80
2020/12/05 12:06:19;;;;;;;11.55;8.48;;;;;;;23.24;38.06;99645.49;2474531;78;25694;-80
2020/12/05 12:09:40;;;;;;;10.23;9.30;;;;;;;23.29;37.95;99646.19;2466790;77;25742;-80
2020/12/05 12:13:07;;;;;;;11.88;8.48;;;;;;;23.33;37.78;99647.32;2461055;78;25758;-80
2020/12/05 12:17:18;;;;;;;9.45;8.03;;;;;;;23.34;37.38;99657.48;2463012;78;25704;-80
2020/12/05 12:25:29;;;;;;;9.50;8.53;;;;;;;22.87;37.43;99673.48;2226130;83;27181;-79
2020/12/05 12:43:46;;;;;;;9.65;8.68;;;;;;;20.48;39.51;99673.36;2618285;75;25439;-81
2020/12/05 12:55:01;;;;;;;8.80;7.45;;;;;;;19.84;46.34;99670.67;2457035;79;25660;-83
2020/12/05 13:05:53;;;;;;;11.57;9.20;;;;;;;19.40;48.35;99677.89;2516232;75;32193;-82
2020/12/05 13:09:17;;;;;;;10.88;8.55;;;;;;;19.35;48.22;99674.50;2437592;78;25780;-81
2020/12/05 13:27:03;;;;;;;15.98;10.88;;;;;;;17.34;45.13;99670.86;2404853;79;25600;-84
2020/12/05 13:30:25;;;;;;;12.98;11.63;;;;;;;16.85;44.96;99679.48;2449418;78;25717;-83
2020/12/05 13:34:06;;;;;;;15.78;12.45;;;;;;;16.49;45.22;99686.89;2448856;78;25683;-83
2020/12/05 13:38:18;;;;;;;16.45;13.50;;;;;;;16.10;45.41;99670.67;2429067;78;25696;-82
2020/12/05 13:41:53;;;;;;;16.15;13.78;;;;;;;15.93;45.58;99691.88;2432954;78;25961;-85
2020/12/05 13:45:30;;;;;;;15.98;13.40;;;;;;;15.64;46.21;99679.39;2463072;79;25721;-84
2020/12/05 13:48:58;;;;;;;18.42;14.50;;;;;;;15.30;46.36;99665.20;2435729;79;25794;-83
2020/12/05 13:52:27;;;;;;;16.67;14.33;;;;;;;15.13;46.76;99683.69;2423541;79;26219;-83
2020/12/05 13:55:55;;;;;;;16.02;14.15;;;;;;;14.91;47.09;99693.86;2395506;80;26433;-84
2020/12/05 14:00:03;;;;;;;17.42;14.60;;;;;;;14.68;47.48;99705.36;2435815;78;25839;-84
2020/12/05 14:03:27;;;;;;;16.65;12.98;;;;;;;14.51;47.82;99717.63;2460044;78;25802;-84
2020/12/05 14:06:51;;;;;;;17.67;14.45;;;;;;;14.36;48.23;99729.02;2448853;78;26067;-83
2020/12/05 14:10:22;;;;;;;16.10;14.13;;;;;;;14.23;48.63;99732.53;2382819;80;25804;-83
2020/12/05 14:13:45;;;;;;;17.67;14.13;;;;;;;14.08;48.80;99735.62;2434620;79;25980;-83
2020/12/05 14:17:07;;;;;;;19.12;15.18;;;;;;;13.94;49.16;99732.14;2429113;79;25770;-83
2020/12/05 14:20:32;;;;;;;20.48;14.98;;;;;;;13.81;49.44;99739.57;2386532;81;26154;-85
2020/12/05 14:24:33;;;;;;;19.87;15.40;;;;;;;13.69;49.89;99739.11;2388669;80;25810;-83
2020/12/05 14:27:55;;;;;;;19.25;14.98;;;;;;;13.53;50.10;99730.80;2363856;80;25926;-83
2020/12/05 14:31:21;;;;;;;19.92;14.87;;;;;;;13.40;50.42;99741.71;2394477;80;25911;-82
2020/12/05 14:34:43;;;;;;;20.00;15.78;;;;;;;13.31;50.72;99746.48;2343268;81;25764;-82
2020/12/05 14:38:05;;;;;;;19.92;15.20;;;;;;;13.20;50.88;99749.05;2342407;82;25782;-83
2020/12/05 14:41:28;;;;;;;18.90;15.20;;;;;;;13.12;51.32;99755.11;2374574;80;25771;-84
2020/12/05 14:45:06;;;;;;;18.15;16.25;;;;;;;13.00;51.51;99749.41;2412286;80;25531;-80
2020/12/05 14:49:19;;;;;;;18.30;15.68;;;;;;;12.91;51.53;99759.39;2368431;81;25876;-81
2020/12/05 15:02:30;;;;;;;21.80;14.73;;;;;;;12.84;52.56;99773.32;2324770;83;26270;-81
2020/12/05 15:15:52;;;;;;;18.82;14.15;;;;;;;12.73;52.87;99782.87;2210165;86;25799;-81
2020/12/05 15:20:27;;;;;;;20.43;15.13;;;;;;;12.76;53.15;99790.30;2511444;74;29706;-81
2020/12/05 15:23:52;;;;;;;17.90;15.18;;;;;;;12.69;53.23;99796.77;2401045;80;25716;-82
2020/12/05 15:27:34;;;;;;;20.55;15.58;;;;;;;12.66;53.45;99791.11;2415206;80;25631;-82
2020/12/05 15:30:58;;;;;;;17.60;15.60;;;;;;;12.63;53.55;99787.61;2427977;80;25923;-82
2020/12/05 15:38:51;;;;;;;26.42;15.25;;;;;;;12.55;53.84;99791.90;2361681;81;26071;-82
2020/12/05 15:42:18;;;;;;;25.08;16.10;;;;;;;12.50;54.01;99799.29;2373544;82;26161;-82
2020/12/05 15:46:04;;;;;;;20.68;15.72;;;;;;;12.47;54.11;99785.33;2350510;81;25830;-81
2020/12/05 15:54:20;;;;;;;21.45;15.23;;;;;;;12.41;54.41;99800.52;2336909;82;25969;-81
2020/12/05 15:58:31;;;;;;;20.07;15.60;;;;;;;12.41;54.92;99797.05;2562145;75;28281;-80
2020/12/05 16:02:23;;;;;;;20.57;16.37;;;;;;;12.34;54.75;99810.94;2373002;81;26143;-80
2020/12/05 16:10:25;;;;;;;19.57;16.20;;;;;;;12.31;55.37;99795.23;2501225;78;29766;-82
2020/12/05 16:14:01;;;;;;;23.85;16.52;;;;;;;12.22;55.20;99800.84;2468713;78;26244;-83
2020/12/05 16:18:30;;;;;;;21.73;16.35;;;;;;;12.19;55.30;99789.06;2472298;79;26404;-81
2020/12/05 16:31:31;;;;;;;23.00;16.80;;;;;;;12.10;55.77;99798.56;2454312;78;25848;-82
2020/12/05 16:40:00;;;;;;;28.43;17.07;;;;;;;12.08;56.20;99801.58;2396996;79;29677;-81
2020/12/05 16:43:21;;;;;;;22.35;16.42;;;;;;;12.01;56.17;99801.95;2348702;82;25783;-80
2020/12/05 16:51:26;;;;;;;20.40;16.02;;;;;;;11.98;56.38;99817.60;2321630;82;25921;-81
2020/12/05 16:55:47;;;;;;;20.95;16.65;;;;;;;11.93;56.60;99804.95;2318931;82;26051;-82
2020/12/05 16:59:08;;;;;;;20.20;16.25;;;;;;;11.92;56.69;99821.49;2347034;82;25731;-83
2020/12/05 17:02:30;;;;;;;21.55;17.20;;;;;;;11.90;56.77;99837.56;2332140;82;26266;-81
2020/12/05 17:05:54;;;;;;;23.02;17.12;;;;;;;11.88;56.86;99841.48;2339646;82;26090;-82
2020/12/05 17:09:25;;;;;;;26.20;16.93;;;;;;;11.86;56.98;99843.20;2372366;82;25671;-81
2020/12/05 17:12:46;;;;;;;22.37;17.60;;;;;;;11.85;57.07;99840.14;2413487;81;25699;-82
2020/12/05 17:16:08;;;;;;;21.90;16.85;;;;;;;11.83;57.17;99837.47;2367895;83;25734;-82
2020/12/05 17:19:32;;;;;;;19.70;16.05;;;;;;;11.80;57.26;99841.35;2409907;81;25726;-80
2020/12/05 17:22:57;;;;;;;26.62;18.37;;;;;;;11.79;57.36;99843.97;2362274;83;25641;-81
2020/12/05 17:26:21;;;;;;;25.15;17.27;;;;;;;11.76;57.45;99850.02;2404432;81;25788;-81
2020/12/05 17:34:31;;;;;;;22.90;16.95;;;;;;;11.70;57.69;99826.89;2374664;81;25661;-82
2020/12/05 17:38:35;;;;;;;24.05;17.23;;;;;;;11.67;57.85;99830.34;2244072;85;25725;-81
2020/12/05 17:41:56;;;;;;;21.07;16.12;;;;;;;11.65;58.06;99829.91;2263333;86;25903;-83
2020/12/05 17:45:18;;;;;;;23.50;17.48;;;;;;;11.62;58.11;99846.84;2267046;86;25749;-82
2020/12/05 17:48:40;;;;;;;30.08;19.17;;;;;;;11.62;58.21;99842.92;2281686;85;26044;-82
2020/12/05 17:52:01;;;;;;;22.20;17.45;;;;;;;11.60;58.29;99853.33;2306086;85;25726;-83
2020/12/05 17:55:32;;;;;;;24.00;17.57;;;;;;;11.57;58.36;99855.91;2282508;85;25826;-81
2020/12/05 17:58:53;;;;;;;25.35;18.73;;;;;;;11.55;58.47;99860.25;2240188;87;25730;-81
2020/12/05 18:02:23;;;;;;;26.65;17.82;;;;;;;11.51;58.56;99850.64;2180522;90;25779;-81
2020/12/05 18:09:38;;;;;;;29.25;19.20;;;;;;;11.45;58.83;99844.91;2297444;85;25697;-81
2020/12/05 18:13:20;;;;;;;27.07;19.98;;;;;;;11.43;58.97;99874.45;2309048;83;25776;-80
2020/12/05 18:16:55;;;;;;;26.40;18.67;;;;;;;11.39;59.07;99860.92;2302045;84;25684;-81
2020/12/05 18:20:23;;;;;;;27.17;19.05;;;;;;;11.37;59.21;99863.94;2290423;85;25817;-82
2020/12/05 18:24:11;;;;;;;;;;;;;;;;;;;;;
2020/12/05 18:28:04;;;;;;;28.07;19.42;;;;;;;11.31;59.43;99860.41;2281482;85;25800;-81
2020/12/05 18:31:29;;;;;;;25.45;18.92;;;;;;;11.28;59.59;99871.24;2216191;86;26043;-81
2020/12/05 18:34:50;;;;;;;27.27;19.75;;;;;;;11.26;59.69;99867.28;2281082;84;25930;-82